createdAt,value
2023-05-25T00:00:11.546Z,13.60
2023-05-25T00:02:42.809Z,13.50
2023-05-25T00:05:09.619Z,13.50
2023-05-25T00:07:36.134Z,13.50
2023-05-25T00:10:03.123Z,13.50
2023-05-25T00:12:29.601Z,13.50
2023-05-25T00:14:56.060Z,13.50
2023-05-25T00:17:24.109Z,13.50
2023-05-25T00:19:51.209Z,13.40
2023-05-25T00:22:17.828Z,13.40
2023-05-25T00:24:44.232Z,13.40
2023-05-25T00:27:10.652Z,13.40
2023-05-25T00:29:37.156Z,13.40
2023-05-25T00:32:04.531Z,13.40
2023-05-25T00:34:30.925Z,13.40
2023-05-25T00:36:57.340Z,13.40
2023-05-25T00:39:23.859Z,13.40
2023-05-25T00:41:50.480Z,13.40
2023-05-25T00:44:21.514Z,13.40
2023-05-25T00:46:51.931Z,13.42
2023-05-25T00:49:21.374Z,13.48
2023-05-25T00:51:48.778Z,13.50
2023-05-25T00:54:16.399Z,13.50
2023-05-25T00:56:51.513Z,13.50
2023-05-25T00:59:35.562Z,13.50
2023-05-25T01:02:07.573Z,13.50
2023-05-25T01:04:40.650Z,13.50
2023-05-25T01:07:11.108Z,13.50
2023-05-25T01:09:40.996Z,13.50
2023-05-25T01:12:09.221Z,13.50
2023-05-25T01:14:37.061Z,13.50
2023-05-25T01:17:04.364Z,13.46
2023-05-25T01:19:33.680Z,13.50
2023-05-25T01:22:27.865Z,13.50
2023-05-25T01:25:09.564Z,13.40
2023-05-25T01:27:46.092Z,13.40
2023-05-25T01:30:16.007Z,13.40
2023-05-25T01:32:43.576Z,13.30
2023-05-25T01:35:12.100Z,13.30
2023-05-25T01:37:45.549Z,13.30
2023-05-25T01:40:13.973Z,13.30
2023-05-25T01:42:40.574Z,13.30
2023-05-25T01:45:09.295Z,13.30
2023-05-25T01:48:25.581Z,13.30
2023-05-25T01:51:02.286Z,13.30
2023-05-25T01:53:42.665Z,13.30
2023-05-25T01:56:13.023Z,13.30
2023-05-25T01:58:44.261Z,13.22
2023-05-25T02:01:14.999Z,13.10
2023-05-25T02:03:42.843Z,13.10
2023-05-25T02:06:09.477Z,13.10
2023-05-25T02:08:36.401Z,13.10
2023-05-25T02:11:03.482Z,13.10
2023-05-25T02:13:30.019Z,13.10
2023-05-25T02:15:56.573Z,13.10
2023-05-25T02:18:23.668Z,13.10
2023-05-25T02:20:50.262Z,13.10
2023-05-25T02:23:18.608Z,13.10
2023-05-25T02:25:45.527Z,13.10
2023-05-25T02:28:12.337Z,13.20
2023-05-25T02:30:39.096Z,13.14
2023-05-25T02:33:05.563Z,13.18
2023-05-25T02:35:31.997Z,13.12
2023-05-25T02:37:58.412Z,13.14
2023-05-25T02:40:24.837Z,13.10
2023-05-25T02:42:51.265Z,13.06
2023-05-25T02:45:18.159Z,13.00
2023-05-25T02:47:44.716Z,13.00
2023-05-25T02:50:11.346Z,13.00
2023-05-25T02:52:37.920Z,13.00
2023-05-25T02:55:05.972Z,12.90
2023-05-25T02:57:32.434Z,12.90
2023-05-25T02:59:58.846Z,12.90
2023-05-25T03:02:25.647Z,12.90
2023-05-25T03:04:53.759Z,12.90
2023-05-25T03:07:21.306Z,12.90
2023-05-25T03:09:47.738Z,12.88
2023-05-25T03:12:14.303Z,12.80
2023-05-25T03:14:40.800Z,12.80
2023-05-25T03:17:07.228Z,12.80
2023-05-25T03:19:33.718Z,12.80
2023-05-25T03:22:00.989Z,12.84
2023-05-25T03:24:27.406Z,12.90
2023-05-25T03:26:53.958Z,13.00
2023-05-25T03:29:20.571Z,12.96
2023-05-25T03:31:47.322Z,13.00
2023-05-25T03:34:13.840Z,13.00
2023-05-25T03:36:40.359Z,13.00
2023-05-25T03:39:07.241Z,13.00
2023-05-25T03:41:33.841Z,12.90
2023-05-25T03:44:00.365Z,12.90
2023-05-25T03:46:26.940Z,12.90
2023-05-25T03:48:53.430Z,12.90
2023-05-25T03:51:19.941Z,12.90
2023-05-25T03:53:46.504Z,12.90
2023-05-25T03:56:13.045Z,12.90
2023-05-25T03:58:39.591Z,12.90
2023-05-25T04:01:06.092Z,12.92
2023-05-25T04:03:33.171Z,13.00
2023-05-25T04:06:00.562Z,13.00
2023-05-25T04:08:28.797Z,13.00
2023-05-25T04:10:56.259Z,12.96
2023-05-25T04:13:23.168Z,12.90
2023-05-25T04:15:51.077Z,12.90
2023-05-25T04:18:17.633Z,12.98
2023-05-25T04:20:46.736Z,13.00
2023-05-25T04:23:13.281Z,13.04
2023-05-25T04:25:39.787Z,13.10
2023-05-25T04:28:08.434Z,13.10
2023-05-25T04:30:36.163Z,13.10
2023-05-25T04:33:03.922Z,13.10
2023-05-25T04:35:31.578Z,13.10
2023-05-25T04:38:00.605Z,13.00
2023-05-25T04:40:27.957Z,13.10
2023-05-25T04:42:55.806Z,13.10
2023-05-25T04:45:23.839Z,13.00
2023-05-25T04:47:50.440Z,13.00
2023-05-25T04:50:17.052Z,13.00
2023-05-25T04:52:43.519Z,13.00
2023-05-25T04:55:10.258Z,12.98
2023-05-25T04:57:36.705Z,13.00
2023-05-25T05:00:03.818Z,13.10
2023-05-25T05:02:30.782Z,13.10
2023-05-25T05:04:57.559Z,13.18
2023-05-25T05:07:24.102Z,13.20
2023-05-25T05:09:50.658Z,13.22
2023-05-25T05:12:17.132Z,13.30
2023-05-25T05:14:43.696Z,13.32
2023-05-25T05:17:10.462Z,13.30
2023-05-25T05:19:37.061Z,13.30
2023-05-25T05:22:03.594Z,13.32
2023-05-25T05:24:29.980Z,13.40
2023-05-25T05:26:59.099Z,13.50
2023-05-25T05:29:28.113Z,13.60
2023-05-25T05:31:56.048Z,13.68
2023-05-25T05:34:22.755Z,13.70
2023-05-25T05:36:57.386Z,13.70
2023-05-25T05:39:26.476Z,13.80
2023-05-25T05:41:54.184Z,13.80
2023-05-25T05:44:22.473Z,13.80
2023-05-25T05:46:49.926Z,13.90
2023-05-25T05:49:16.512Z,13.96
2023-05-25T05:51:42.969Z,14.00
2023-05-25T05:54:09.419Z,14.00
2023-05-25T05:56:35.906Z,14.00
2023-05-25T05:59:02.358Z,14.10
2023-05-25T06:01:28.768Z,14.20
2023-05-25T06:03:55.940Z,14.20
2023-05-25T06:06:22.438Z,14.30
2023-05-25T06:08:48.893Z,14.30
2023-05-25T06:11:15.431Z,14.50
2023-05-25T06:13:41.859Z,14.60
2023-05-25T06:16:08.463Z,14.70
2023-05-25T06:18:34.997Z,14.70
2023-05-25T06:21:02.284Z,14.70
2023-05-25T06:23:29.021Z,14.70
2023-05-25T06:25:55.591Z,14.60
2023-05-25T06:28:22.070Z,14.60
2023-05-25T06:30:48.682Z,14.66
2023-05-25T06:33:15.204Z,14.60
2023-05-25T06:35:42.034Z,14.68
2023-05-25T06:38:08.744Z,14.70
2023-05-25T06:40:35.145Z,14.80
2023-05-25T06:43:01.605Z,14.90
2023-05-25T06:45:28.216Z,15.00
2023-05-25T06:48:00.644Z,15.00
2023-05-25T06:50:27.104Z,15.10
2023-05-25T06:52:53.582Z,15.22
2023-05-25T06:55:20.109Z,15.50
2023-05-25T06:57:46.575Z,15.80
2023-05-25T07:00:14.168Z,16.08
2023-05-25T07:02:40.707Z,16.30
2023-05-25T07:05:07.726Z,16.50
2023-05-25T07:07:34.450Z,16.78
2023-05-25T07:10:03.907Z,16.90
2023-05-25T07:12:30.439Z,17.00
2023-05-25T07:14:58.670Z,17.00
2023-05-25T07:17:25.264Z,17.00
2023-05-25T07:19:52.000Z,17.10
2023-05-25T07:22:19.326Z,17.30
2023-05-25T07:24:49.577Z,17.40
2023-05-25T07:27:16.721Z,17.50
2023-05-25T07:29:43.587Z,17.50
2023-05-25T07:32:10.046Z,17.52
2023-05-25T07:34:36.899Z,17.50
2023-05-25T07:37:03.707Z,17.50
2023-05-25T07:39:30.151Z,17.60
2023-05-25T07:42:06.237Z,17.60
2023-05-25T07:44:32.836Z,17.58
2023-05-25T07:46:59.340Z,17.50
2023-05-25T07:49:25.809Z,17.50
2023-05-25T07:51:52.244Z,17.48
2023-05-25T07:54:18.807Z,17.42
2023-05-25T07:56:45.312Z,17.50
2023-05-25T07:59:11.759Z,17.50
2023-05-25T08:01:39.765Z,17.60
2023-05-25T08:04:06.380Z,17.60
2023-05-25T08:06:33.008Z,17.62
2023-05-25T08:08:59.625Z,17.70
2023-05-25T08:11:27.611Z,17.78
2023-05-25T08:13:54.641Z,17.80
2023-05-25T08:16:21.228Z,17.80
2023-05-25T08:18:47.993Z,17.90
2023-05-25T08:21:14.876Z,17.98
2023-05-25T08:23:42.777Z,18.04
2023-05-25T08:28:42.294Z,18.10
2023-05-25T08:31:08.723Z,18.10
2023-05-25T08:33:35.485Z,18.20
2023-05-25T08:36:01.955Z,18.30
2023-05-25T08:38:28.698Z,18.30
2023-05-25T08:41:07.140Z,18.40
2023-05-25T08:43:34.781Z,18.58
2023-05-25T08:46:06.865Z,18.62
2023-05-25T08:48:41.818Z,18.70
2023-05-25T08:51:11.893Z,18.70
2023-05-25T08:53:41.162Z,18.80
2023-05-25T08:56:18.581Z,18.98
2023-05-25T08:59:20.329Z,19.00
2023-05-25T09:01:57.608Z,19.10
2023-05-25T09:04:25.978Z,19.10
2023-05-25T09:09:21.979Z,19.20
2023-05-25T09:11:48.453Z,19.30
2023-05-25T09:14:14.959Z,19.30
2023-05-25T09:16:41.781Z,19.34
2023-05-25T09:19:08.429Z,19.40
2023-05-25T09:21:35.963Z,19.40
2023-05-25T09:24:02.773Z,19.50
2023-05-25T09:26:29.253Z,19.58
2023-05-25T09:28:56.105Z,19.70
2023-05-25T09:31:24.626Z,19.74
2023-05-25T09:33:51.546Z,19.80
2023-05-25T09:36:20.079Z,19.90
2023-05-25T09:38:46.778Z,19.90
2023-05-25T09:41:13.341Z,20.00
2023-05-25T09:43:46.817Z,20.10
2023-05-25T09:46:21.228Z,20.20
2023-05-25T09:48:48.587Z,20.20
2023-05-25T09:51:15.532Z,20.26
2023-05-25T09:53:43.071Z,20.40
2023-05-25T09:56:12.494Z,20.50
2023-05-25T09:58:39.200Z,20.50
2023-05-25T10:01:05.950Z,20.60
2023-05-25T10:03:33.143Z,20.60
2023-05-25T10:06:01.042Z,20.62
2023-05-25T10:08:29.199Z,20.74
2023-05-25T10:10:55.967Z,20.92
2023-05-25T10:13:23.090Z,21.10
2023-05-25T10:15:54.625Z,21.30
2023-05-25T10:18:32.786Z,21.30
2023-05-25T10:21:05.209Z,21.20
2023-05-25T10:23:47.973Z,21.38
2023-05-25T10:26:22.976Z,21.54
2023-05-25T10:28:51.874Z,21.70
2023-05-25T10:31:19.627Z,21.90
2023-05-25T10:33:49.290Z,22.10
2023-05-25T10:36:20.771Z,22.30
2023-05-25T10:38:54.706Z,22.40
2023-05-25T10:41:21.666Z,22.60
2023-05-25T10:43:49.256Z,22.70
2023-05-25T10:46:17.165Z,22.80
2023-05-25T10:48:48.825Z,22.90
2023-05-25T10:51:18.802Z,23.00
2023-05-25T10:53:58.527Z,23.00
2023-05-25T10:56:25.085Z,22.92
2023-05-25T10:58:53.671Z,22.94
2023-05-25T11:01:21.142Z,23.00
2023-05-25T11:03:54.872Z,23.10
2023-05-25T11:06:46.461Z,23.00
2023-05-25T11:09:33.059Z,23.08
2023-05-25T11:12:01.664Z,23.10
2023-05-25T11:14:31.303Z,23.10
2023-05-25T11:17:13.955Z,23.10
2023-05-25T11:19:54.006Z,23.10
2023-05-25T11:22:32.189Z,23.16
2023-05-25T11:25:03.252Z,23.20
2023-05-25T11:27:32.145Z,23.10
2023-05-25T11:30:00.373Z,23.10
2023-05-25T11:32:28.284Z,23.20
2023-05-25T11:34:58.257Z,23.20
2023-05-25T11:37:31.105Z,23.30
2023-05-25T11:39:57.653Z,23.40
2023-05-25T11:42:25.703Z,23.56
2023-05-25T11:44:53.510Z,23.74
2023-05-25T11:47:24.885Z,23.90
2023-05-25T11:49:52.111Z,23.90
2023-05-25T11:52:20.718Z,24.00
2023-05-25T11:54:47.181Z,24.20
2023-05-25T11:57:20.159Z,24.10
2023-05-25T12:00:01.152Z,23.90
2023-05-25T12:02:27.806Z,23.72
2023-05-25T12:04:57.323Z,23.60
2023-05-25T12:07:26.317Z,23.50
2023-05-25T12:10:12.248Z,23.60
2023-05-25T12:12:50.668Z,23.60
2023-05-25T12:15:22.305Z,23.60
2023-05-25T12:17:50.388Z,23.50
2023-05-25T12:20:18.821Z,23.50
2023-05-25T12:22:46.911Z,23.42
2023-05-25T12:25:15.920Z,23.22
2023-05-25T12:27:42.655Z,23.20
2023-05-25T12:30:10.566Z,23.20
2023-05-25T12:33:04.044Z,23.30
2023-05-25T12:35:47.607Z,23.20
2023-05-25T12:38:18.749Z,23.20
2023-05-25T12:40:45.582Z,23.20
2023-05-25T12:43:13.372Z,23.20
2023-05-25T12:45:41.996Z,23.10
2023-05-25T12:48:08.748Z,23.10
2023-05-25T12:50:35.480Z,23.10
2023-05-25T12:53:04.206Z,23.10
2023-05-25T12:55:34.229Z,23.20
2023-05-25T12:58:06.250Z,23.50
2023-05-25T13:00:41.415Z,23.80
2023-05-25T13:03:08.370Z,23.96
2023-05-25T13:05:37.460Z,24.00
2023-05-25T13:08:05.531Z,23.90
2023-05-25T13:10:35.191Z,23.80
2023-05-25T13:13:02.071Z,23.70
2023-05-25T13:15:29.799Z,23.62
2023-05-25T13:18:00.544Z,23.80
2023-05-25T13:20:32.543Z,23.90
2023-05-25T13:22:59.358Z,23.78
2023-05-25T13:25:27.365Z,23.70
2023-05-25T13:27:54.976Z,23.70
2023-05-25T13:30:22.481Z,23.80
2023-05-25T13:32:51.692Z,23.96
2023-05-25T13:35:23.493Z,24.10
2023-05-25T13:37:51.137Z,24.10
2023-05-25T13:40:17.816Z,24.10
2023-05-25T13:42:44.343Z,24.00
2023-05-25T13:45:11.053Z,23.90
2023-05-25T13:47:37.904Z,23.80
2023-05-25T13:50:05.195Z,23.80
2023-05-25T13:52:31.750Z,23.70
2023-05-25T13:54:58.195Z,23.70
2023-05-25T13:57:24.623Z,23.60
2023-05-25T13:59:51.028Z,23.50
2023-05-25T14:02:17.552Z,23.40
2023-05-25T14:04:44.234Z,23.30
2023-05-25T14:07:11.147Z,23.16
2023-05-25T14:09:37.885Z,23.00
2023-05-25T14:12:04.813Z,23.00
2023-05-25T14:14:32.627Z,22.98
2023-05-25T14:17:00.456Z,23.00
2023-05-25T14:19:27.383Z,23.02
2023-05-25T14:22:11.955Z,23.00
2023-05-25T14:24:40.163Z,23.00
2023-05-25T14:27:09.541Z,22.92
2023-05-25T14:29:36.489Z,22.90
2023-05-25T14:32:03.898Z,22.80
2023-05-25T14:34:30.444Z,22.80
2023-05-25T14:36:56.920Z,22.70
2023-05-25T14:39:23.490Z,22.60
2023-05-25T14:41:49.960Z,22.50
2023-05-25T14:44:16.711Z,22.60
2023-05-25T14:46:43.376Z,22.68
2023-05-25T14:49:10.279Z,22.70
2023-05-25T14:51:37.904Z,22.80
2023-05-25T14:54:06.387Z,23.00
2023-05-25T14:56:33.079Z,23.10
2023-05-25T14:58:59.674Z,23.12
2023-05-25T15:01:26.254Z,23.06
2023-05-25T15:03:53.535Z,23.00
2023-05-25T15:06:20.013Z,23.18
2023-05-25T15:08:46.741Z,23.50
2023-05-25T15:11:13.319Z,23.78
2023-05-25T15:13:41.149Z,24.10
2023-05-25T15:16:12.392Z,24.30
2023-05-25T15:18:38.921Z,24.50
2023-05-25T15:21:06.210Z,24.70
2023-05-25T15:23:32.638Z,24.90
2023-05-25T15:26:03.998Z,25.00
2023-05-25T15:28:31.201Z,25.00
2023-05-25T15:30:58.594Z,24.80
2023-05-25T15:33:39.535Z,24.54
2023-05-25T15:36:13.281Z,24.40
2023-05-25T15:38:39.699Z,24.12
2023-05-25T15:41:07.274Z,23.90
2023-05-25T15:43:33.733Z,23.62
2023-05-25T15:46:00.285Z,23.50
2023-05-25T15:48:26.754Z,23.62
2023-05-25T15:50:53.822Z,23.90
2023-05-25T15:53:20.335Z,24.10
2023-05-25T15:55:47.155Z,24.30
2023-05-25T15:58:13.702Z,24.44
2023-05-25T16:00:40.146Z,24.60
2023-05-25T16:03:06.744Z,24.50
2023-05-25T16:05:33.648Z,24.30
2023-05-25T16:08:00.215Z,24.10
2023-05-25T16:10:26.620Z,24.00
2023-05-25T16:12:53.060Z,24.00
2023-05-25T16:15:19.678Z,23.90
2023-05-25T16:17:46.225Z,23.64
2023-05-25T16:20:13.063Z,23.36
2023-05-25T16:22:39.502Z,23.10
2023-05-25T16:25:06.624Z,22.98
2023-05-25T16:27:33.062Z,22.90
2023-05-25T16:29:59.488Z,22.76
2023-05-25T16:32:27.242Z,22.62
2023-05-25T16:34:53.804Z,22.60
2023-05-25T16:37:20.504Z,22.80
2023-05-25T16:39:46.952Z,22.90
2023-05-25T16:42:13.356Z,23.00
2023-05-25T16:44:39.780Z,23.20
2023-05-25T16:47:06.318Z,23.60
2023-05-25T16:49:33.046Z,23.80
2023-05-25T16:51:59.475Z,24.08
2023-05-25T16:54:25.848Z,24.10
2023-05-25T16:56:52.278Z,24.30
2023-05-25T16:59:18.758Z,24.60
2023-05-25T17:01:45.340Z,24.80
2023-05-25T17:04:11.810Z,25.00
2023-05-25T17:06:38.259Z,24.74
2023-05-25T17:09:04.725Z,24.30
2023-05-25T17:11:31.343Z,24.40
2023-05-25T17:13:57.822Z,24.30
2023-05-25T17:16:24.311Z,24.30
2023-05-25T17:18:50.700Z,24.30
2023-05-25T17:21:17.165Z,24.40
2023-05-25T17:23:43.596Z,24.50
2023-05-25T17:26:09.997Z,24.70
2023-05-25T17:28:36.639Z,24.90
2023-05-25T17:31:03.270Z,24.90
2023-05-25T17:33:29.796Z,24.80
2023-05-25T17:35:56.258Z,24.90
2023-05-25T17:38:22.707Z,25.00
2023-05-25T17:40:50.232Z,25.14
2023-05-25T17:43:16.826Z,25.10
2023-05-25T17:45:43.649Z,25.10
2023-05-25T17:48:10.712Z,25.10
2023-05-25T17:50:37.180Z,25.20
2023-05-25T17:53:04.128Z,25.18
2023-05-25T17:55:30.567Z,25.10
2023-05-25T17:57:57.029Z,25.04
2023-05-25T18:00:26.266Z,24.92
2023-05-25T18:02:52.941Z,24.80
2023-05-25T18:05:19.479Z,24.60
2023-05-25T18:07:45.997Z,24.42
2023-05-25T18:10:14.497Z,24.22
2023-05-25T18:12:41.334Z,24.00
2023-05-25T18:15:08.893Z,23.80
2023-05-25T18:17:35.356Z,23.44
2023-05-25T18:20:01.814Z,23.12
2023-05-25T18:22:28.252Z,22.74
2023-05-25T18:24:54.675Z,22.38
2023-05-25T18:27:21.775Z,22.02
2023-05-25T18:29:48.198Z,21.78
2023-05-25T18:32:14.650Z,21.50
2023-05-25T18:34:41.840Z,21.20
2023-05-25T18:37:08.291Z,20.90
2023-05-25T18:39:34.775Z,20.70
2023-05-25T18:42:01.606Z,20.50
2023-05-25T18:44:28.698Z,20.30
2023-05-25T18:46:56.521Z,20.10
2023-05-25T18:49:26.257Z,19.90
2023-05-25T18:51:52.731Z,19.80
2023-05-25T18:54:19.190Z,19.70
2023-05-25T18:56:45.603Z,19.54
2023-05-25T18:59:12.088Z,19.40
2023-05-25T19:01:38.515Z,19.30
2023-05-25T19:04:05.245Z,19.20
2023-05-25T19:06:33.063Z,19.12
2023-05-25T19:08:59.517Z,19.08
2023-05-25T19:11:26.391Z,19.00
2023-05-25T19:13:52.925Z,18.90
2023-05-25T19:16:19.436Z,18.80
2023-05-25T19:18:46.963Z,18.80
2023-05-25T19:21:13.591Z,18.70
2023-05-25T19:23:41.574Z,18.64
2023-05-25T19:26:08.082Z,18.60
2023-05-25T19:28:34.561Z,18.52
2023-05-25T19:31:01.058Z,18.50
2023-05-25T19:33:27.512Z,18.50
2023-05-25T19:35:54.039Z,18.50
2023-05-25T19:38:24.700Z,18.50
2023-05-25T19:40:53.223Z,18.40
2023-05-25T19:43:19.752Z,18.40
2023-05-25T19:45:46.414Z,18.40
2023-05-25T19:48:13.050Z,18.34
2023-05-25T19:50:39.467Z,18.30
2023-05-25T19:53:05.983Z,18.30
2023-05-25T19:55:33.677Z,18.30
2023-05-25T19:58:00.136Z,18.30
2023-05-25T20:00:27.411Z,18.30
2023-05-25T20:02:54.261Z,18.20
2023-05-25T20:05:21.117Z,18.20
2023-05-25T20:07:47.704Z,18.20
2023-05-25T20:10:14.214Z,18.20
2023-05-25T20:12:41.128Z,18.10
2023-05-25T20:15:08.104Z,18.10
2023-05-25T20:17:34.591Z,18.10
2023-05-25T20:20:01.559Z,18.10
2023-05-25T20:22:28.161Z,18.10
2023-05-25T20:24:57.981Z,18.10
2023-05-25T20:27:25.147Z,18.10
2023-05-25T20:29:51.622Z,18.10
2023-05-25T20:32:18.125Z,18.10
2023-05-25T20:34:44.544Z,18.10
2023-05-25T20:37:11.058Z,18.10
2023-05-25T20:39:37.538Z,18.00
2023-05-25T20:42:04.511Z,18.00
2023-05-25T20:44:32.032Z,18.00
2023-05-25T20:46:59.332Z,18.00
2023-05-25T20:49:26.185Z,17.92
2023-05-25T20:51:52.623Z,17.92
2023-05-25T20:54:19.152Z,17.98
2023-05-25T20:56:47.432Z,18.00
2023-05-25T20:59:13.981Z,18.00
2023-05-25T21:01:40.667Z,18.00
2023-05-25T21:04:07.395Z,18.00
2023-05-25T21:06:34.003Z,18.00
2023-05-25T21:09:00.544Z,17.98
2023-05-25T21:11:27.148Z,17.92
2023-05-25T21:13:53.595Z,17.90
2023-05-25T21:16:20.157Z,17.90
2023-05-25T21:18:46.634Z,17.90
2023-05-25T21:21:14.763Z,17.90
2023-05-25T21:23:41.522Z,17.90
2023-05-25T21:26:08.051Z,17.90
2023-05-25T21:28:34.462Z,17.90
2023-05-25T21:31:01.009Z,17.88
2023-05-25T21:33:29.317Z,17.90
2023-05-25T21:35:55.800Z,17.86
2023-05-25T21:38:22.295Z,17.80
2023-05-25T21:40:48.677Z,17.80
2023-05-25T21:43:15.323Z,17.76
2023-05-25T21:45:41.738Z,17.70
2023-05-25T21:48:08.181Z,17.70
2023-05-25T21:50:36.486Z,17.70
2023-05-25T21:53:02.954Z,17.70
2023-05-25T21:55:29.367Z,17.70
2023-05-25T21:57:55.886Z,17.70
2023-05-25T22:00:24.392Z,17.70
2023-05-25T22:02:51.430Z,17.60
2023-05-25T22:05:18.164Z,17.60
2023-05-25T22:07:44.591Z,17.60
2023-05-25T22:10:11.365Z,17.60
2023-05-25T22:12:37.839Z,17.54
2023-05-25T22:15:06.426Z,17.50
2023-05-25T22:17:32.944Z,17.50
2023-05-25T22:22:32.828Z,17.40
2023-05-25T22:24:59.283Z,17.42
2023-05-25T22:27:26.194Z,17.40
2023-05-25T22:29:52.608Z,17.40
2023-05-25T22:32:19.121Z,17.40
2023-05-25T22:34:45.704Z,17.38
2023-05-25T22:37:12.183Z,17.30
2023-05-25T22:39:38.579Z,17.30
2023-05-25T22:42:06.719Z,17.30
2023-05-25T22:44:35.792Z,17.20
2023-05-25T22:47:02.966Z,17.14
2023-05-25T22:49:29.561Z,17.10
2023-05-25T22:51:56.010Z,17.02
2023-05-25T22:54:22.516Z,17.00
2023-05-25T22:56:48.930Z,17.00
2023-05-25T22:59:15.764Z,16.90
2023-05-25T23:01:42.404Z,16.90
2023-05-25T23:04:09.002Z,16.82
2023-05-25T23:06:36.516Z,16.80
2023-05-25T23:09:03.100Z,16.80
2023-05-25T23:11:29.527Z,16.70
2023-05-25T23:13:55.947Z,16.68
2023-05-25T23:16:22.600Z,16.60
2023-05-25T23:18:49.204Z,16.60
2023-05-25T23:21:16.151Z,16.50
2023-05-25T23:23:42.622Z,16.50
2023-05-25T23:26:09.138Z,16.40
2023-05-25T23:28:35.686Z,16.40
2023-05-25T23:31:02.179Z,16.30
2023-05-25T23:33:29.309Z,16.20
2023-05-25T23:35:55.807Z,16.20
2023-05-25T23:38:22.299Z,16.10
2023-05-25T23:40:48.751Z,16.00
2023-05-25T23:43:16.318Z,15.94
2023-05-25T23:45:43.118Z,15.90
2023-05-25T23:48:09.821Z,15.82
2023-05-25T23:50:36.337Z,15.80
2023-05-25T23:53:02.779Z,15.80
2023-05-25T23:55:29.257Z,15.80
2023-05-25T23:57:55.724Z,15.70
